createdAt,value
2019-04-05T00:01:57.614Z,17.53
2019-04-05T00:04:26.792Z,18.15
2019-04-05T00:06:55.329Z,16.73
2019-04-05T00:09:23.236Z,16.90
2019-04-05T00:11:51.470Z,16.63
2019-04-05T00:14:19.484Z,17.60
2019-04-05T00:16:47.574Z,15.97
2019-04-05T00:19:15.848Z,16.87
2019-04-05T00:21:45.132Z,17.17
2019-04-05T00:24:13.147Z,17.30
2019-04-05T00:26:41.137Z,17.73
2019-04-05T00:29:09.396Z,17.82
2019-04-05T00:31:37.322Z,16.00
2019-04-05T00:34:05.335Z,17.63
2019-04-05T00:36:33.335Z,16.70
2019-04-05T00:39:01.620Z,17.80
2019-04-05T00:41:32.819Z,16.70
2019-04-05T00:44:00.134Z,15.47
2019-04-05T00:46:28.622Z,17.40
2019-04-05T00:48:56.940Z,18.03
2019-04-05T00:51:26.014Z,17.20
2019-04-05T00:53:54.637Z,18.07
2019-04-05T00:56:22.745Z,19.80
2019-04-05T00:58:51.081Z,17.32
2019-04-05T01:01:19.203Z,18.15
2019-04-05T01:03:47.292Z,17.48
2019-04-05T01:06:15.299Z,17.15
2019-04-05T01:08:43.424Z,18.27
2019-04-05T01:11:11.522Z,18.37
2019-04-05T01:13:40.893Z,18.65
2019-04-05T01:16:08.897Z,16.50
2019-04-05T01:18:37.025Z,18.12
2019-04-05T01:21:07.682Z,17.92
2019-04-05T01:23:35.806Z,18.40
2019-04-05T01:26:03.922Z,19.27
2019-04-05T01:28:32.243Z,17.27
2019-04-05T01:31:00.389Z,17.35
2019-04-05T01:33:28.511Z,19.42
2019-04-05T01:35:56.527Z,18.90
2019-04-05T01:38:24.546Z,20.27
2019-04-05T01:40:55.794Z,18.95
2019-04-05T01:43:24.018Z,20.25
2019-04-05T01:45:54.076Z,18.87
2019-04-05T01:48:22.354Z,17.30
2019-04-05T01:50:50.476Z,18.60
2019-04-05T01:53:18.501Z,18.02
2019-04-05T01:55:46.905Z,18.15
2019-04-05T01:58:15.006Z,18.20
2019-04-05T02:00:43.446Z,19.42
2019-04-05T02:03:12.101Z,20.20
2019-04-05T02:05:40.470Z,18.30
2019-04-05T02:08:08.630Z,17.95
2019-04-05T02:10:36.760Z,20.12
2019-04-05T02:13:05.004Z,21.57
2019-04-05T02:15:34.641Z,19.60
2019-04-05T02:18:02.750Z,19.80
2019-04-05T02:20:30.875Z,19.45
2019-04-05T02:22:59.079Z,19.80
2019-04-05T02:25:27.704Z,19.62
2019-04-05T02:27:56.104Z,22.93
2019-04-05T02:30:25.507Z,21.40
2019-04-05T02:32:54.203Z,22.30
2019-04-05T02:35:22.576Z,20.47
2019-04-05T02:37:51.498Z,23.10
2019-04-05T02:40:23.017Z,22.50
2019-04-05T02:42:54.577Z,24.77
2019-04-05T02:45:24.111Z,26.23
2019-04-05T02:47:55.840Z,27.75
2019-04-05T02:50:28.156Z,29.00
2019-04-05T02:52:59.904Z,28.17
2019-04-05T02:55:29.038Z,29.75
2019-04-05T02:57:58.794Z,30.45
2019-04-05T03:00:27.150Z,30.35
2019-04-05T03:02:55.359Z,31.80
2019-04-05T03:05:24.267Z,31.42
2019-04-05T03:07:52.374Z,32.30
2019-04-05T03:10:56.824Z,32.05
2019-04-05T03:13:26.879Z,31.35
2019-04-05T03:15:58.601Z,31.40
2019-04-05T03:18:28.844Z,31.00
2019-04-05T03:20:59.823Z,32.25
2019-04-05T03:23:29.526Z,31.12
2019-04-05T03:26:01.385Z,31.57
2019-04-05T03:28:32.671Z,31.82
2019-04-05T03:31:01.434Z,30.70
2019-04-05T03:33:30.166Z,30.92
2019-04-05T03:35:58.277Z,32.03
2019-04-05T03:38:26.633Z,31.55
2019-04-05T03:40:55.436Z,32.90
2019-04-05T03:43:23.907Z,28.95
2019-04-05T03:45:52.539Z,30.20
2019-04-05T03:48:21.295Z,30.32
2019-04-05T03:50:50.311Z,29.82
2019-04-05T03:53:18.812Z,29.00
2019-04-05T03:55:47.509Z,28.80
2019-04-05T03:58:16.131Z,28.55
2019-04-05T04:00:46.877Z,37.05
2019-04-05T04:03:14.314Z,30.80
2019-04-05T04:05:43.308Z,29.77
2019-04-05T04:08:11.434Z,28.65
2019-04-05T04:10:40.234Z,29.15
2019-04-05T04:13:08.619Z,29.55
2019-04-05T04:15:37.876Z,27.60
2019-04-05T04:18:06.151Z,30.25
2019-04-05T04:20:38.734Z,30.30
2019-04-05T04:23:07.722Z,30.43
2019-04-05T04:25:37.545Z,31.48
2019-04-05T04:28:06.155Z,30.87
2019-04-05T04:30:35.319Z,31.07
2019-04-05T04:33:03.655Z,28.87
2019-04-05T04:35:32.059Z,29.73
2019-04-05T04:38:00.502Z,29.32
2019-04-05T04:40:28.609Z,31.10
2019-04-05T04:42:56.826Z,31.07
2019-04-05T04:45:25.726Z,29.95
2019-04-05T04:47:53.943Z,30.70
2019-04-05T04:50:22.777Z,29.80
2019-04-05T04:52:51.959Z,29.45
2019-04-05T04:55:20.423Z,29.53
2019-04-05T04:57:49.103Z,30.65
2019-04-05T05:00:17.728Z,27.48
2019-04-05T05:02:46.594Z,29.23
2019-04-05T05:05:15.336Z,30.08
2019-04-05T05:07:44.067Z,31.00
2019-04-05T05:10:12.697Z,28.67
2019-04-05T05:12:41.451Z,29.15
2019-04-05T05:15:10.116Z,27.87
2019-04-05T05:17:39.214Z,28.83
2019-04-05T05:20:07.637Z,28.67
2019-04-05T05:22:36.114Z,28.40
2019-04-05T05:25:05.285Z,27.52
2019-04-05T05:27:34.313Z,29.37
2019-04-05T05:30:03.158Z,28.10
2019-04-05T05:32:31.853Z,28.32
2019-04-05T05:35:02.172Z,28.27
2019-04-05T05:37:32.816Z,28.53
2019-04-05T05:40:01.530Z,28.60
2019-04-05T05:42:30.147Z,30.60
2019-04-05T05:44:58.798Z,30.70
2019-04-05T05:47:27.298Z,30.15
2019-04-05T05:49:55.464Z,30.75
2019-04-05T05:52:24.849Z,29.65
2019-04-05T05:54:53.693Z,30.45
2019-04-05T05:57:21.826Z,32.00
2019-04-05T05:59:50.217Z,31.10
2019-04-05T06:02:18.433Z,30.80
2019-04-05T06:04:47.700Z,35.00
2019-04-05T06:07:15.978Z,32.00
2019-04-05T06:09:44.339Z,31.77
2019-04-05T06:12:13.783Z,32.13
2019-04-05T06:14:42.723Z,33.60
2019-04-05T06:17:11.247Z,32.53
2019-04-05T06:19:39.587Z,35.10
2019-04-05T06:22:07.997Z,36.17
2019-04-05T06:24:36.158Z,35.70
2019-04-05T06:27:04.520Z,34.50
2019-04-05T06:29:32.693Z,35.30
2019-04-05T06:32:01.154Z,33.60
2019-04-05T06:34:29.797Z,37.58
2019-04-05T06:36:58.186Z,36.00
2019-04-05T06:39:26.354Z,35.53
2019-04-05T06:41:54.804Z,36.75
2019-04-05T06:44:23.077Z,38.23
2019-04-05T06:46:51.411Z,35.50
2019-04-05T06:49:20.158Z,38.30
2019-04-05T06:51:48.589Z,38.97
2019-04-05T06:54:16.511Z,35.33
2019-04-05T06:56:44.429Z,39.33
2019-04-05T06:59:12.631Z,38.38
2019-04-05T07:01:41.102Z,36.68
2019-04-05T07:04:10.062Z,35.90
2019-04-05T07:06:37.986Z,38.07
2019-04-05T07:09:08.525Z,38.40
2019-04-05T07:11:35.832Z,32.40
2019-04-05T07:14:03.052Z,32.80
2019-04-05T07:16:31.188Z,31.80
2019-04-05T07:18:59.218Z,29.17
2019-04-05T07:21:27.249Z,28.50
2019-04-05T07:23:55.405Z,30.07
2019-04-05T07:26:23.697Z,29.83
2019-04-05T07:28:51.870Z,28.90
2019-04-05T07:31:20.037Z,26.53
2019-04-05T07:33:48.781Z,27.47
2019-04-05T07:36:17.374Z,25.03
2019-04-05T07:38:45.787Z,23.60
2019-04-05T07:41:14.013Z,25.20
2019-04-05T07:43:41.928Z,24.13
2019-04-05T07:46:10.028Z,24.27
2019-04-05T07:48:44.749Z,22.73
2019-04-05T07:51:08.318Z,22.53
2019-04-05T07:53:36.457Z,22.20
2019-04-05T07:56:04.560Z,22.87
2019-04-05T07:58:32.585Z,25.00
2019-04-05T08:01:06.692Z,22.67
2019-04-05T08:03:34.706Z,23.50
2019-04-05T08:06:03.162Z,23.43
2019-04-05T08:09:02.299Z,21.93
2019-04-05T08:11:29.844Z,23.67
2019-04-05T08:13:59.327Z,24.93
2019-04-05T08:16:28.836Z,23.70
2019-04-05T08:18:57.974Z,22.13
2019-04-05T08:21:25.047Z,21.77
2019-04-05T08:23:51.999Z,21.87
2019-04-05T08:26:19.035Z,20.27
2019-04-05T08:28:46.011Z,17.97
2019-04-05T08:31:14.533Z,19.30
2019-04-05T08:33:43.393Z,18.87
2019-04-05T08:36:10.408Z,18.83
2019-04-05T08:38:39.660Z,16.83
2019-04-05T08:41:06.304Z,17.47
2019-04-05T08:43:33.210Z,18.47
2019-04-05T08:46:00.123Z,17.33
2019-04-05T08:48:30.788Z,18.40
2019-04-05T08:50:57.905Z,17.13
2019-04-05T08:53:24.801Z,17.33
2019-04-05T08:55:51.801Z,18.07
2019-04-05T08:58:19.190Z,18.77
2019-04-05T09:00:46.114Z,16.90
2019-04-05T09:03:14.655Z,18.43
2019-04-05T09:05:42.950Z,18.60
2019-04-05T09:08:09.963Z,15.77
2019-04-05T09:10:37.883Z,18.87
2019-04-05T09:13:06.091Z,20.40
2019-04-05T09:15:34.069Z,20.20
2019-04-05T09:18:05.886Z,19.73
2019-04-05T09:20:33.889Z,19.33
2019-04-05T09:23:01.985Z,20.53
2019-04-05T09:25:30.072Z,20.83
2019-04-05T09:27:57.965Z,20.17
2019-04-05T09:30:30.083Z,19.30
2019-04-05T09:32:58.122Z,19.47
2019-04-05T09:35:26.153Z,20.97
2019-04-05T09:37:54.064Z,17.60
2019-04-05T09:40:22.049Z,20.30
2019-04-05T09:42:51.123Z,20.83
2019-04-05T09:45:20.697Z,20.60
2019-04-05T09:47:49.049Z,21.20
2019-04-05T09:50:17.249Z,19.83
2019-04-05T09:52:45.180Z,19.00
2019-04-05T09:55:13.205Z,19.87
2019-04-05T09:57:41.234Z,18.90
2019-04-05T10:00:16.450Z,20.60
2019-04-05T10:02:44.602Z,18.47
2019-04-05T10:05:13.126Z,17.37
2019-04-05T10:07:54.203Z,16.73
2019-04-05T10:10:14.262Z,17.40
2019-04-05T10:12:42.700Z,19.10
2019-04-05T10:15:11.034Z,16.17
2019-04-05T10:17:39.919Z,17.23
2019-04-05T10:20:08.124Z,15.80
2019-04-05T10:22:39.057Z,15.80
2019-04-05T10:25:07.552Z,15.93
2019-04-05T10:27:36.825Z,17.10
2019-04-05T10:30:07.797Z,16.83
2019-04-05T10:32:36.096Z,16.00
2019-04-05T10:35:06.002Z,17.27
2019-04-05T10:37:33.922Z,15.60
2019-04-05T10:40:03.638Z,17.33
2019-04-05T10:42:32.480Z,16.17
2019-04-05T10:45:02.417Z,16.23
2019-04-05T10:47:33.625Z,16.47
2019-04-05T10:50:03.581Z,18.37
2019-04-05T10:52:31.993Z,18.00
2019-04-05T10:54:59.889Z,18.10
2019-04-05T10:57:28.013Z,18.60
2019-04-05T10:59:57.427Z,20.57
2019-04-05T11:02:25.341Z,19.80
2019-04-05T11:04:53.251Z,19.00
2019-04-05T11:07:21.477Z,20.33
2019-04-05T11:09:49.613Z,18.03
2019-04-05T11:12:20.942Z,20.67
2019-04-05T11:14:48.997Z,21.23
2019-04-05T11:17:17.007Z,20.37
2019-04-05T11:19:45.056Z,21.77
2019-04-05T11:22:13.318Z,20.70
2019-04-05T11:24:45.578Z,20.00
2019-04-05T11:27:13.637Z,19.13
2019-04-05T11:29:41.792Z,20.00
2019-04-05T11:32:09.930Z,17.13
2019-04-05T11:34:37.973Z,20.00
2019-04-05T11:37:06.082Z,17.47
2019-04-05T11:39:36.197Z,18.60
2019-04-05T11:42:04.386Z,19.17
2019-04-05T11:44:32.965Z,16.13
2019-04-05T11:47:02.510Z,15.50
2019-04-05T11:49:37.453Z,16.10
2019-04-05T11:52:05.560Z,17.07
2019-04-05T11:54:33.834Z,16.67
2019-04-05T11:57:01.945Z,13.83
2019-04-05T11:59:29.882Z,14.87
2019-04-05T12:02:07.143Z,13.43
2019-04-05T12:04:35.057Z,13.33
2019-04-05T12:07:03.903Z,12.10
2019-04-05T12:09:32.461Z,12.80
2019-04-05T12:12:00.910Z,12.20
2019-04-05T12:14:34.516Z,12.47
2019-04-05T12:17:05.272Z,14.40
2019-04-05T12:19:33.620Z,12.70
2019-04-05T12:22:04.539Z,12.77
2019-04-05T12:24:36.612Z,14.10
2019-04-05T12:27:05.597Z,13.73
2019-04-05T12:29:33.834Z,12.13
2019-04-05T12:32:02.074Z,13.03
2019-04-05T12:34:30.096Z,12.97
2019-04-05T12:37:01.850Z,11.90
2019-04-05T12:39:29.954Z,11.57
2019-04-05T12:41:58.117Z,14.07
2019-04-05T12:44:27.203Z,17.07
2019-04-05T12:46:55.134Z,18.97
2019-04-05T12:49:24.937Z,22.57
2019-04-05T12:51:56.310Z,20.57
2019-04-05T12:54:24.696Z,21.30
2019-04-05T12:56:54.285Z,21.53
2019-04-05T12:59:25.204Z,22.30
2019-04-05T13:01:53.746Z,20.67
2019-04-05T13:04:22.960Z,19.40
2019-04-05T13:06:53.012Z,19.17
2019-04-05T13:09:23.542Z,19.07
2019-04-05T13:11:56.514Z,19.90
2019-04-05T13:14:26.137Z,16.93
2019-04-05T13:16:53.036Z,19.40
2019-04-05T13:19:21.173Z,18.50
2019-04-05T13:21:49.511Z,16.60
2019-04-05T13:24:18.277Z,17.10
2019-04-05T13:26:46.405Z,18.70
2019-04-05T13:29:14.846Z,20.20
2019-04-05T13:31:43.349Z,18.40
2019-04-05T13:34:11.681Z,20.27
2019-04-05T13:36:40.225Z,31.60
2019-04-05T13:39:08.345Z,22.80
2019-04-05T13:41:36.557Z,24.37
2019-04-05T13:44:06.083Z,23.70
2019-04-05T13:46:38.294Z,25.20
2019-04-05T13:49:04.673Z,24.07
2019-04-05T13:51:32.962Z,24.77
2019-04-05T13:54:01.202Z,29.07
2019-04-05T13:56:29.750Z,22.47
2019-04-05T13:58:58.146Z,23.53
2019-04-05T14:01:26.703Z,23.50
2019-04-05T14:03:55.375Z,23.90
2019-04-05T14:06:24.969Z,22.13
2019-04-05T14:08:53.614Z,25.90
2019-04-05T14:11:22.442Z,26.73
2019-04-05T14:13:50.757Z,25.27
2019-04-05T14:16:18.926Z,22.63
2019-04-05T14:18:49.728Z,23.07
2019-04-05T14:21:20.631Z,22.33
2019-04-05T14:23:48.541Z,18.50
2019-04-05T14:26:16.995Z,20.13
2019-04-05T14:28:45.093Z,19.57
2019-04-05T14:31:13.274Z,18.97
2019-04-05T14:33:41.905Z,18.33
2019-04-05T14:36:10.524Z,18.37
2019-04-05T14:38:39.232Z,16.80
2019-04-05T14:41:08.460Z,18.87
2019-04-05T14:43:37.903Z,18.90
2019-04-05T14:46:06.993Z,21.23
2019-04-05T14:48:35.360Z,18.53
2019-04-05T14:51:03.787Z,21.57
2019-04-05T14:53:32.756Z,19.27
2019-04-05T14:56:01.391Z,21.33
2019-04-05T14:58:29.794Z,20.67
2019-04-05T15:00:58.266Z,19.30
2019-04-05T15:03:26.950Z,21.80
2019-04-05T15:05:55.631Z,22.20
2019-04-05T15:08:25.211Z,20.43
2019-04-05T15:10:56.608Z,21.90
2019-04-05T15:13:24.355Z,20.17
2019-04-05T15:15:53.322Z,20.20
2019-04-05T15:18:24.562Z,21.53
2019-04-05T15:20:53.133Z,19.00
2019-04-05T15:23:21.882Z,18.00
2019-04-05T15:25:50.778Z,19.23
2019-04-05T15:28:19.474Z,19.37
2019-04-05T15:30:49.507Z,19.93
2019-04-05T15:33:18.605Z,18.87
2019-04-05T15:35:47.541Z,19.33
2019-04-05T15:38:16.066Z,19.43
2019-04-05T15:40:44.678Z,21.17
2019-04-05T15:43:13.378Z,19.07
2019-04-05T15:45:42.803Z,17.27
2019-04-05T15:48:12.004Z,15.17
2019-04-05T15:50:40.386Z,17.43
2019-04-05T15:53:08.711Z,15.43
2019-04-05T15:55:37.202Z,17.60
2019-04-05T15:58:05.722Z,17.20
2019-04-05T16:00:44.460Z,28.23
2019-04-05T16:03:13.398Z,17.87
2019-04-05T16:05:42.977Z,16.27
2019-04-05T16:08:11.389Z,16.77
2019-04-05T16:10:39.881Z,16.57
2019-04-05T16:13:09.448Z,16.03
2019-04-05T16:15:38.109Z,17.80
2019-04-05T16:18:06.639Z,16.80
2019-04-05T16:20:34.909Z,16.10
2019-04-05T16:23:03.319Z,19.23
2019-04-05T16:25:33.979Z,16.90
2019-04-05T16:28:02.738Z,17.17
2019-04-05T16:30:30.766Z,16.67
2019-04-05T16:32:58.821Z,19.20
2019-04-05T16:35:26.752Z,18.13
2019-04-05T16:37:55.171Z,18.73
2019-04-05T16:40:26.843Z,18.43
2019-04-05T16:43:02.419Z,18.60
2019-04-05T16:45:25.281Z,21.17
2019-04-05T16:47:54.058Z,19.87
2019-04-05T16:50:22.275Z,17.23
2019-04-05T16:52:52.091Z,18.43
2019-04-05T16:55:20.549Z,19.43
2019-04-05T16:57:48.830Z,20.70
2019-04-05T17:00:17.557Z,19.20
2019-04-05T17:02:46.126Z,20.20
2019-04-05T17:05:15.571Z,20.90
2019-04-05T17:07:43.678Z,17.80
2019-04-05T17:10:12.050Z,19.87
2019-04-05T17:12:40.318Z,19.20
2019-04-05T17:15:08.721Z,20.63
2019-04-05T17:17:39.834Z,20.20
2019-04-05T17:20:08.307Z,20.33
2019-04-05T17:22:37.123Z,21.40
2019-04-05T17:25:06.847Z,21.50
2019-04-05T17:27:35.619Z,19.53
2019-04-05T17:30:07.306Z,21.33
2019-04-05T17:32:35.785Z,20.00
2019-04-05T17:35:04.750Z,22.20
2019-04-05T17:37:33.493Z,22.33
2019-04-05T17:40:02.090Z,21.60
2019-04-05T17:42:30.765Z,18.87
2019-04-05T17:44:59.039Z,19.63
2019-04-05T17:47:27.668Z,19.80
2019-04-05T17:49:56.440Z,20.13
2019-04-05T17:52:24.685Z,18.87
2019-04-05T17:54:54.614Z,20.30
2019-04-05T17:57:23.013Z,21.13
2019-04-05T17:59:51.896Z,20.93
2019-04-05T18:02:20.682Z,20.87
2019-04-05T18:04:49.056Z,21.00
2019-04-05T18:07:17.442Z,20.43
2019-04-05T18:09:45.890Z,20.73
2019-04-05T18:12:14.153Z,20.87
2019-04-05T18:14:42.686Z,24.23
2019-04-05T18:17:11.221Z,23.53
2019-04-05T18:19:40.189Z,22.40
2019-04-05T18:22:08.577Z,22.47
2019-04-05T18:24:36.585Z,21.20
2019-04-05T18:27:04.952Z,21.60
2019-04-05T18:29:33.260Z,22.00
2019-04-05T18:32:01.656Z,22.47
2019-04-05T18:34:30.018Z,24.40
2019-04-05T18:36:58.602Z,24.80
2019-04-05T18:39:27.155Z,23.50
2019-04-05T18:41:55.311Z,21.43
2019-04-05T18:44:23.756Z,24.23
2019-04-05T18:46:51.998Z,22.27
2019-04-05T18:49:20.517Z,24.43
2019-04-05T18:51:48.522Z,23.07
2019-04-05T18:54:16.644Z,23.80
2019-04-05T18:56:44.669Z,23.00
2019-04-05T18:59:12.675Z,25.77
2019-04-05T19:01:40.702Z,22.47
2019-04-05T19:04:09.400Z,24.83
2019-04-05T19:06:38.228Z,24.40
2019-04-05T19:09:07.266Z,25.97
2019-04-05T19:11:36.258Z,23.73
2019-04-05T19:14:05.001Z,23.43
2019-04-05T19:16:33.800Z,24.10
2019-04-05T19:19:02.362Z,23.70
2019-04-05T19:21:30.858Z,24.90
2019-04-05T19:23:59.907Z,24.00
2019-04-05T19:26:28.319Z,25.43
2019-04-05T19:28:56.255Z,21.97
2019-04-05T19:48:54.340Z,27.37
2019-04-05T19:51:22.366Z,24.70
2019-04-05T19:54:00.671Z,26.50
2019-04-05T19:56:23.586Z,24.70
2019-04-05T19:58:51.909Z,25.63
2019-04-05T20:01:20.071Z,27.63
2019-04-05T20:03:48.255Z,25.07
2019-04-05T20:06:16.205Z,27.07
2019-04-05T20:08:44.630Z,26.93
2019-04-05T20:11:12.725Z,26.17
2019-04-05T20:13:40.919Z,27.00
2019-04-05T20:16:09.010Z,27.43
2019-04-05T20:18:37.230Z,25.40
2019-04-05T20:21:05.258Z,25.00
2019-04-05T20:23:33.203Z,27.80
2019-04-05T20:26:01.540Z,25.83
2019-04-05T20:28:29.579Z,25.30
2019-04-05T20:30:58.258Z,25.57
2019-04-05T20:33:26.579Z,26.37
2019-04-05T20:35:55.450Z,28.73
2019-04-05T20:38:23.705Z,25.90
2019-04-05T20:40:52.174Z,25.77
2019-04-05T20:43:20.641Z,27.97
2019-04-05T20:45:48.696Z,27.63
2019-04-05T20:48:17.155Z,27.60
2019-04-05T20:50:45.972Z,29.13
2019-04-05T20:53:14.416Z,28.57
2019-04-05T20:55:43.058Z,28.10
2019-04-05T20:58:11.086Z,29.40
2019-04-05T21:00:39.113Z,28.50
2019-04-05T21:03:07.533Z,31.43
2019-04-05T21:05:35.470Z,29.60
2019-04-05T21:08:03.721Z,27.70
2019-04-05T21:10:31.737Z,29.50
2019-04-05T21:12:59.765Z,28.93
2019-04-05T21:15:27.830Z,29.90
2019-04-05T21:17:55.748Z,32.97
2019-04-05T21:20:23.698Z,30.23
2019-04-05T21:22:51.705Z,33.60
2019-04-05T21:25:20.058Z,32.60
2019-04-05T21:27:48.485Z,30.40
2019-04-05T21:30:16.966Z,28.57
2019-04-05T21:32:44.972Z,30.40
2019-04-05T21:35:13.023Z,32.73
2019-04-05T21:37:41.320Z,31.90
2019-04-05T21:40:10.358Z,31.87
2019-04-05T21:42:38.750Z,34.13
2019-04-05T21:45:07.418Z,32.77
2019-04-05T21:47:35.674Z,31.80
2019-04-05T21:50:04.134Z,30.23
2019-04-05T21:52:32.693Z,31.40
2019-04-05T21:55:01.245Z,30.77
2019-04-05T21:57:29.934Z,29.10
2019-04-05T21:59:58.596Z,33.40
2019-04-05T22:02:27.212Z,31.60
2019-04-05T22:04:55.630Z,29.60
2019-04-05T22:07:23.701Z,33.00
2019-04-05T22:09:51.729Z,30.33
2019-04-05T22:12:20.155Z,29.70
2019-04-05T22:14:48.626Z,31.50
2019-04-05T22:17:19.028Z,31.60
2019-04-05T22:19:47.609Z,32.83
2019-04-05T22:22:16.041Z,32.63
2019-04-05T22:24:44.205Z,32.90
2019-04-05T22:27:12.290Z,33.57
2019-04-05T22:29:40.714Z,33.40
2019-04-05T22:32:08.859Z,33.97
2019-04-05T22:34:37.373Z,32.23
2019-04-05T22:37:05.598Z,32.20
2019-04-05T22:39:35.166Z,32.77
2019-04-05T22:42:03.587Z,32.10
2019-04-05T22:44:38.057Z,34.97
2019-04-05T22:47:02.172Z,32.67
2019-04-05T22:49:30.316Z,31.07
2019-04-05T22:51:58.726Z,34.20
2019-04-05T22:54:27.609Z,33.60
2019-04-05T22:56:55.962Z,33.40
2019-04-05T22:59:24.382Z,31.83
2019-04-05T23:01:52.720Z,33.13
2019-04-05T23:04:21.270Z,33.87
2019-04-05T23:06:50.709Z,33.60
2019-04-05T23:09:19.106Z,32.50
2019-04-05T23:11:47.669Z,34.73
2019-04-05T23:14:16.114Z,31.63
2019-04-05T23:16:44.606Z,32.83
2019-04-05T23:19:12.881Z,29.97
2019-04-05T23:21:41.422Z,31.70
2019-04-05T23:24:09.477Z,31.20
2019-04-05T23:26:38.286Z,30.37
2019-04-05T23:29:06.502Z,32.90
2019-04-05T23:31:35.564Z,31.17
2019-04-05T23:34:03.728Z,32.77
2019-04-05T23:36:32.134Z,32.27
2019-04-05T23:39:00.693Z,31.90
2019-04-05T23:41:28.859Z,28.70
2019-04-05T23:43:57.283Z,34.53
2019-04-05T23:46:26.781Z,33.20
2019-04-05T23:48:55.001Z,33.90
2019-04-05T23:51:23.236Z,36.70
2019-04-05T23:53:51.892Z,32.83
2019-04-05T23:56:20.389Z,37.97
2019-04-05T23:58:48.834Z,36.80
